Time;durP1;ratioP1;P1;durP2;ratioP2;P2;SDS_P1;SDS_P2;PMS_P1;PMS_P2;Temp;Humidity;BMP_temperature;BMP_pressure;BME280_temperature;BME280_humidity;BME280_pressure;Samples;Min_cycle;Max_cycle;Signal;HPM_P1;HPM_P2
2021/08/02 00:01:29;;;;;;;;;1.00;1.00;;;;;19.90;53.52;100633.78;5016608;28;51690;-60
2021/08/02 00:04:06;;;;;;;;;1.25;1.25;;;;;19.84;53.96;100630.03;5018008;28;45395;-60
2021/08/02 00:06:52;;;;;;;;;1.00;1.00;;;;;19.81;54.05;100635.75;5016967;28;45482;-60
2021/08/02 00:09:23;;;;;;;;;2.00;1.00;;;;;19.80;53.93;100627.94;5018180;28;45296;-60
2021/08/02 00:11:57;;;;;;;;;1.00;1.00;;;;;19.80;53.87;100617.25;5016861;28;46335;-61
2021/08/02 00:14:22;;;;;;;;;1.25;1.25;;;;;19.77;54.17;100617.66;5017850;28;45411;-60
2021/08/02 00:16:48;;;;;;;;;2.00;1.00;;;;;19.72;54.33;100631.59;5000270;28;45448;-61
2021/08/02 00:19:14;;;;;;;;;1.50;1.50;;;;;19.68;54.41;100620.47;5017900;28;45571;-60
2021/08/02 00:21:41;;;;;;;;;0.75;0.75;;;;;19.66;54.71;100619.03;5016363;28;69412;-60
2021/08/02 00:24:06;;;;;;;;;1.00;1.00;;;;;19.62;54.76;100615.09;5016426;28;45831;-60
2021/08/02 00:26:32;;;;;;;;;2.00;1.25;;;;;19.59;55.10;100619.00;5017631;28;45309;-60
2021/08/02 00:29:00;;;;;;;;;3.00;1.75;;;;;19.54;55.04;100613.41;4999082;28;69407;-60
2021/08/02 00:31:25;;;;;;;;;1.25;1.25;;;;;19.52;54.69;100618.91;5016247;28;45348;-60
2021/08/02 00:33:50;;;;;;;;;2.00;1.00;;;;;19.50;55.22;100615.63;4998915;28;71489;-60
2021/08/02 00:36:30;;;;;;;;;1.00;1.00;;;;;19.48;54.89;100614.19;5017571;28;45347;-60
2021/08/02 00:39:03;;;;;;;;;2.00;2.00;;;;;19.48;55.28;100620.31;5016498;28;45433;-60
2021/08/02 00:41:55;;;;;;;;;3.00;1.00;;;;;19.46;55.52;100617.03;5017341;28;46030;-60
2021/08/02 00:44:48;;;;;;;;;2.00;2.00;;;;;19.45;55.53;100620.69;5002106;28;45731;-59
2021/08/02 00:47:18;;;;;;;;;3.00;2.00;;;;;19.45;55.53;100626.03;5016377;28;45436;-60
2021/08/02 00:49:56;;;;;;;;;3.00;2.00;;;;;19.45;55.47;100625.22;5017441;28;45347;-59
2021/08/02 00:52:22;;;;;;;;;2.25;1.00;;;;;19.42;55.42;100621.94;5017205;28;45371;-60
2021/08/02 00:54:48;;;;;;;;;2.00;2.00;;;;;19.40;55.39;100626.63;5017134;28;45214;-61
2021/08/02 00:57:13;;;;;;;;;2.00;1.75;;;;;19.40;55.40;100617.78;5017258;28;45229;-60
2021/08/02 00:59:39;;;;;;;;;2.25;2.00;;;;;19.38;55.64;100620.66;4998218;28;61071;-60
2021/08/02 01:02:04;;;;;;;;;2.00;2.00;;;;;19.35;55.37;100618.38;5017094;28;46140;-60
2021/08/02 01:04:31;;;;;;;;;2.00;2.00;;;;;19.36;55.31;100617.38;5017055;28;48630;-60
2021/08/02 01:06:57;;;;;;;;;3.75;2.00;;;;;19.35;55.13;100621.03;5015879;28;45399;-60
2021/08/02 01:09:22;;;;;;;;;1.25;1.25;;;;;19.32;55.65;100620.63;5014778;28;70668;-60
2021/08/02 01:11:49;;;;;;;;;1.00;1.00;;;;;19.29;55.70;100632.47;5015721;28;45471;-59
2021/08/02 01:14:15;;;;;;;;;4.00;2.00;;;;;19.26;55.66;100623.03;5016909;28;45430;-61
2021/08/02 01:16:41;;;;;;;;;1.25;1.25;;;;;19.24;56.03;100630.38;5015810;28;45785;-59
2021/08/02 01:19:08;;;;;;;;;2.00;2.00;;;;;19.23;55.46;100614.56;5015723;28;45605;-59
2021/08/02 01:21:36;;;;;;;;;3.00;2.00;;;;;19.23;55.14;100627.91;5015524;28;46087;-60
2021/08/02 01:24:02;;;;;;;;;3.00;2.00;;;;;19.24;55.02;100625.06;5015443;28;51006;-60
2021/08/02 01:26:42;;;;;;;;;2.00;2.00;;;;;19.26;55.27;100622.19;5014736;28;63543;-60
2021/08/02 01:29:45;;;;;;;;;6.00;3.25;;;;;19.28;55.11;100626.31;5016876;28;45338;-60
2021/08/02 01:32:10;;;;;;;;;3.00;3.00;;;;;19.31;54.55;100625.09;5015967;28;45384;-60
2021/08/02 01:34:36;;;;;;;;;3.00;3.00;;;;;19.32;54.65;100625.94;5016143;28;51121;-61
2021/08/02 01:37:01;;;;;;;;;2.00;2.00;;;;;19.33;55.00;100620.41;5016037;28;63120;-60
2021/08/02 01:39:26;;;;;;;;;2.00;2.00;;;;;19.35;54.94;100626.38;5016593;28;45335;-61
2021/08/02 01:41:52;;;;;;;;;2.25;2.25;;;;;19.37;54.82;100624.34;5015564;28;70807;-60
2021/08/02 01:44:17;;;;;;;;;4.00;3.00;;;;;19.38;55.59;100623.31;5015791;28;69735;-60
2021/08/02 01:47:09;;;;;;;;;3.50;2.00;;;;;19.37;55.48;100624.34;5015569;28;68345;-60
2021/08/02 01:49:57;;;;;;;;;2.25;2.25;;;;;19.36;55.69;100622.69;4989329;28;45585;-60
2021/08/02 01:52:26;;;;;;;;;3.00;2.00;;;;;19.36;55.71;100624.53;5016295;28;45410;-59
2021/08/02 01:54:55;;;;;;;;;4.00;2.00;;;;;19.34;56.09;100630.06;5015402;28;45857;-60
2021/08/02 01:57:34;;;;;;;;;3.00;3.00;;;;;19.33;55.69;100622.28;5014534;28;45301;-61
2021/08/02 02:00:11;;;;;;;;;2.00;2.00;;;;;19.31;55.67;100627.78;5016160;28;45362;-60
2021/08/02 02:02:36;;;;;;;;;5.50;4.00;;;;;19.29;55.42;100627.13;5015066;28;45247;-60
2021/08/02 02:05:12;;;;;;;;;3.00;2.00;;;;;19.30;55.92;100634.13;4998181;28;53215;-60
2021/08/02 02:07:58;;;;;;;;;2.00;2.00;;;;;19.32;56.38;100621.44;5016238;28;45467;-60
2021/08/02 02:10:24;;;;;;;;;2.00;2.00;;;;;19.31;56.35;100621.63;5015015;28;45413;-60
2021/08/02 02:12:49;;;;;;;;;5.00;2.00;;;;;19.28;56.48;100626.31;4998208;28;50870;-60
2021/08/02 02:15:15;;;;;;;;;2.00;2.00;;;;;19.27;56.61;100632.66;4997322;28;69900;-60
2021/08/02 02:17:40;;;;;;;;;3.75;3.00;;;;;19.29;56.90;100627.13;5013926;28;69244;-59
2021/08/02 02:20:06;;;;;;;;;4.00;2.75;;;;;19.26;57.09;100627.50;5014000;28;66225;-60
2021/08/02 02:22:33;;;;;;;;;2.50;2.50;;;;;19.23;57.09;100628.75;5016166;28;45891;-60
2021/08/02 02:24:59;;;;;;;;;2.00;2.00;;;;;19.20;57.14;100626.44;5014946;28;45337;-61
2021/08/02 02:27:24;;;;;;;;;3.00;3.00;;;;;19.20;57.09;100620.28;4997386;28;69452;-60
2021/08/02 02:29:50;;;;;;;;;1.00;1.00;;;;;19.19;57.15;100624.81;5013958;28;67079;-60
2021/08/02 02:32:15;;;;;;;;;2.00;2.00;;;;;19.18;56.71;100630.31;4997195;28;75673;-60
2021/08/02 02:34:40;;;;;;;;;2.75;2.75;;;;;19.13;56.97;100622.91;4997159;28;73109;-60
2021/08/02 02:37:06;;;;;;;;;2.00;2.00;;;;;19.08;57.21;100617.31;4997447;28;64846;-59
2021/08/02 02:39:31;;;;;;;;;4.00;2.75;;;;;19.06;56.81;100625.50;5015699;28;48358;-59
2021/08/02 02:41:57;;;;;;;;;3.50;2.00;;;;;19.04;57.05;100622.22;5014472;28;45569;-60
2021/08/02 02:44:22;;;;;;;;;2.50;2.50;;;;;19.01;57.01;100625.25;4999709;28;45433;-60
2021/08/02 02:46:48;;;;;;;;;2.50;2.00;;;;;18.97;57.14;100631.97;5000549;28;69244;-60
2021/08/02 02:49:13;;;;;;;;;3.00;3.00;;;;;18.91;57.40;100624.72;5018028;28;45569;-60
2021/08/02 02:51:39;;;;;;;;;3.00;3.00;;;;;18.86;57.45;100624.44;5016913;28;74542;-60
2021/08/02 02:54:04;;;;;;;;;3.00;3.00;;;;;18.80;57.65;100626.84;5019246;28;45400;-61
2021/08/02 02:56:30;;;;;;;;;2.00;2.00;;;;;18.73;57.76;100623.28;5017134;28;62458;-61
2021/08/02 02:58:56;;;;;;;;;2.00;1.50;;;;;18.68;57.86;100625.69;5017968;28;45555;-60
2021/08/02 03:01:29;;;;;;;;;3.25;3.00;;;;;18.62;57.95;100631.75;5016906;28;69015;-60
2021/08/02 03:03:56;;;;;;;;;3.50;3.00;;;;;18.56;58.18;100628.00;5017874;28;45289;-60
2021/08/02 03:06:21;;;;;;;;;3.00;3.00;;;;;18.51;58.30;100636.56;5001223;28;45325;-60
2021/08/02 03:08:47;;;;;;;;;3.00;2.50;;;;;18.47;58.40;100634.44;5018948;28;45574;-61
2021/08/02 03:11:15;;;;;;;;;3.00;3.00;;;;;18.43;58.35;100634.00;5017138;28;45295;-60
2021/08/02 03:13:41;;;;;;;;;2.00;2.00;;;;;18.39;58.33;100632.72;5017640;28;45450;-60
2021/08/02 03:16:06;;;;;;;;;5.75;2.00;;;;;18.35;58.59;100631.44;5018985;28;45371;-60
2021/08/02 03:18:33;;;;;;;;;4.00;3.25;;;;;18.29;58.71;100635.66;5018806;28;45573;-60
2021/08/02 03:20:58;;;;;;;;;3.25;2.00;;;;;18.28;58.96;100638.50;5018619;28;46391;-59
2021/08/02 03:23:27;;;;;;;;;4.50;3.50;;;;;18.26;59.08;100636.03;5016531;28;69159;-60
2021/08/02 03:25:58;;;;;;;;;3.25;2.00;;;;;18.23;59.13;100636.41;5017496;28;45363;-61
2021/08/02 03:28:31;;;;;;;;;3.50;2.25;;;;;18.22;58.96;100642.72;5017087;28;50017;-60
2021/08/02 03:30:58;;;;;;;;;3.00;3.00;;;;;18.18;58.98;100647.56;5017238;28;48185;-60
2021/08/02 03:33:26;;;;;;;;;3.00;3.00;;;;;18.19;59.22;100648.41;5017196;28;48595;-60
2021/08/02 03:35:51;;;;;;;;;2.75;2.75;;;;;18.14;59.18;100638.31;5001021;28;45420;-60
2021/08/02 03:38:16;;;;;;;;;3.00;3.00;;;;;18.12;59.42;100648.31;4999974;28;63497;-59
2021/08/02 03:40:45;;;;;;;;;3.00;3.00;;;;;18.07;59.28;100646.22;4999656;28;75598;-60
2021/08/02 03:43:10;;;;;;;;;3.00;3.00;;;;;18.04;59.66;100651.06;4999732;28;70040;-60
2021/08/02 03:45:35;;;;;;;;;3.50;3.00;;;;;18.01;59.78;100654.91;5016284;28;64405;-60
2021/08/02 03:48:02;;;;;;;;;3.00;3.00;;;;;17.97;59.80;100652.78;5016219;28;68287;-60
2021/08/02 03:50:29;;;;;;;;;3.75;3.00;;;;;17.94;59.94;100652.13;5018170;28;45442;-59
2021/08/02 03:52:54;;;;;;;;;6.50;3.75;;;;;17.93;60.03;100655.81;5018143;28;45418;-60
2021/08/02 03:55:20;;;;;;;;;3.50;3.00;;;;;17.89;60.26;100651.84;5015534;28;55531;-60
2021/08/02 03:57:45;;;;;;;;;3.00;3.00;;;;;17.88;60.32;100658.19;5000010;28;45702;-60
2021/08/02 04:00:11;;;;;;;;;3.50;3.50;;;;;17.87;60.23;100655.69;5016820;28;75552;-61
2021/08/02 04:02:36;;;;;;;;;3.25;3.25;;;;;17.87;60.40;100653.88;5017608;28;50391;-60
2021/08/02 04:05:02;;;;;;;;;6.25;3.00;;;;;17.88;60.39;100658.19;5018120;28;45268;-60
2021/08/02 04:07:27;;;;;;;;;4.00;4.00;;;;;17.88;60.49;100663.50;5017940;28;45498;-60
2021/08/02 04:09:52;;;;;;;;;4.50;3.50;;;;;17.88;60.35;100663.50;5017812;28;47700;-60
2021/08/02 04:12:18;;;;;;;;;4.00;4.00;;;;;17.87;60.47;100661.00;5016876;28;73149;-60
2021/08/02 04:14:43;;;;;;;;;3.25;3.25;;;;;17.86;60.45;100673.47;5017166;28;62126;-60
2021/08/02 04:17:08;;;;;;;;;3.25;3.00;;;;;17.84;60.46;100667.53;5017069;28;62493;-60
2021/08/02 04:19:34;;;;;;;;;3.25;3.25;;;;;17.82;60.61;100674.84;5016781;28;72242;-60
2021/08/02 04:21:59;;;;;;;;;4.25;3.25;;;;;17.82;60.54;100676.66;5017697;28;45233;-60
2021/08/02 04:24:26;;;;;;;;;5.00;4.00;;;;;17.79;60.78;100675.22;5016759;28;68290;-60
2021/08/02 04:26:52;;;;;;;;;3.00;2.00;;;;;17.77;60.75;100683.34;5017713;28;45323;-60
2021/08/02 04:29:17;;;;;;;;;5.00;4.50;;;;;17.77;61.11;100683.34;5017584;28;45895;-59
2021/08/02 04:31:43;;;;;;;;;5.00;3.75;;;;;17.77;60.96;100679.88;5016523;28;71304;-60
2021/08/02 04:34:08;;;;;;;;;2.75;2.75;;;;;17.73;60.98;100684.75;5017718;28;45248;-60
2021/08/02 04:36:34;;;;;;;;;4.75;2.75;;;;;17.73;61.15;100689.22;5016815;28;65014;-61
2021/08/02 04:38:59;;;;;;;;;4.75;3.00;;;;;17.73;60.91;100683.91;5016578;28;70606;-59
2021/08/02 04:41:24;;;;;;;;;3.25;3.25;;;;;17.74;60.95;100682.88;5016518;28;70373;-60
2021/08/02 04:43:50;;;;;;;;;4.00;4.00;;;;;17.76;60.86;100687.00;5017480;28;45311;-61
2021/08/02 04:46:15;;;;;;;;;4.00;4.00;;;;;17.79;61.14;100693.81;5017122;28;48518;-59
2021/08/02 04:48:41;;;;;;;;;4.00;4.00;;;;;17.80;61.39;100690.16;5017091;28;45469;-60
2021/08/02 04:51:06;;;;;;;;;4.00;4.00;;;;;17.81;61.36;100691.81;5017396;28;45317;-60
2021/08/02 04:53:32;;;;;;;;;4.00;4.00;;;;;17.83;61.13;100692.44;5016686;28;54603;-60
2021/08/02 04:55:57;;;;;;;;;4.50;3.00;;;;;17.84;61.25;100688.78;5016296;28;68583;-60
2021/08/02 04:58:23;;;;;;;;;3.75;3.75;;;;;17.85;61.35;100693.09;5016266;28;71827;-60
2021/08/02 05:00:49;;;;;;;;;5.75;4.00;;;;;17.85;61.31;100686.94;5017081;28;45422;-60
2021/08/02 05:03:14;;;;;;;;;4.00;3.00;;;;;17.87;61.35;100693.75;5017209;28;45399;-59
2021/08/02 05:05:40;;;;;;;;;3.00;3.00;;;;;17.85;61.52;100693.09;5017113;28;45410;-61
2021/08/02 05:08:05;;;;;;;;;4.00;3.00;;;;;17.86;61.65;100689.44;5016908;28;45378;-60
2021/08/02 05:10:32;;;;;;;;;3.25;3.25;;;;;17.87;62.01;100688.41;5017054;28;45359;-60
2021/08/02 05:12:57;;;;;;;;;3.75;3.75;;;;;17.88;61.75;100698.06;5017150;28;45412;-60
2021/08/02 05:15:23;;;;;;;;;4.25;3.75;;;;;17.88;61.57;100700.72;5015800;28;68986;-60
2021/08/02 05:17:48;;;;;;;;;5.00;5.00;;;;;17.88;61.62;100695.38;5015782;28;73210;-60
2021/08/02 05:20:15;;;;;;;;;5.00;4.00;;;;;17.90;61.79;100695.19;5015750;28;67669;-60
2021/08/02 05:22:41;;;;;;;;;6.50;4.00;;;;;17.91;61.72;100694.19;5016714;28;45354;-60
2021/08/02 05:25:06;;;;;;;;;4.25;3.00;;;;;17.92;62.00;100698.50;5014650;28;67174;-61
2021/08/02 05:27:32;;;;;;;;;3.50;3.00;;;;;17.92;61.96;100698.50;5016339;28;45341;-60
2021/08/02 05:29:57;;;;;;;;;6.25;3.25;;;;;17.92;61.95;100703.81;5016406;28;45225;-61
2021/08/02 05:32:23;;;;;;;;;5.00;4.00;;;;;17.93;62.02;100703.66;5015718;28;65740;-61
2021/08/02 05:34:49;;;;;;;;;4.50;4.00;;;;;17.95;61.82;100706.97;5015698;28;67190;-60
2021/08/02 05:37:15;;;;;;;;;4.25;4.00;;;;;17.95;62.01;100708.78;5016357;28;45455;-61
2021/08/02 05:39:40;;;;;;;;;4.50;4.00;;;;;17.96;62.07;100710.44;5016469;28;45374;-60
2021/08/02 05:42:06;;;;;;;;;3.50;3.00;;;;;17.96;62.02;100718.41;5015842;28;61633;-60
2021/08/02 05:44:32;;;;;;;;;3.50;3.50;;;;;17.98;61.92;100712.91;5015128;28;49253;-60
2021/08/02 05:46:57;;;;;;;;;6.25;5.00;;;;;17.98;61.51;100716.38;5016431;28;46397;-60
2021/08/02 05:49:23;;;;;;;;;4.75;4.75;;;;;18.02;61.83;100722.19;5016368;28;45390;-60
2021/08/02 05:51:53;;;;;;;;;4.25;3.50;;;;;18.07;61.99;100722.47;5015514;28;68439;-60
2021/08/02 05:54:19;;;;;;;;;10.75;9.00;;;;;18.14;61.54;100731.38;5016354;28;45483;-60
2021/08/02 05:56:44;;;;;;;;;5.50;5.50;;;;;18.23;61.48;100724.97;5015250;28;73812;-60
2021/08/02 05:59:09;;;;;;;;;5.75;5.25;;;;;18.31;61.20;100729.38;5015447;28;60900;-60
2021/08/02 06:01:35;;;;;;;;;4.00;4.00;;;;;18.39;61.19;100723.16;5015372;28;67070;-61
2021/08/02 06:04:00;;;;;;;;;5.50;5.50;;;;;18.48;61.09;100722.06;5015205;28;69899;-60
2021/08/02 06:06:26;;;;;;;;;5.00;5.00;;;;;18.58;60.85;100724.44;5015919;28;46136;-60
2021/08/02 06:08:51;;;;;;;;;4.50;4.00;;;;;18.67;60.67;100727.81;5015334;28;62037;-60
2021/08/02 06:11:16;;;;;;;;;4.50;4.50;;;;;18.71;60.39;100723.78;5015355;28;61397;-60
2021/08/02 06:13:42;;;;;;;;;4.00;3.25;;;;;18.77;60.44;100727.56;5016051;28;45487;-61
2021/08/02 06:16:07;;;;;;;;;5.75;5.00;;;;;18.80;60.35;100725.34;5015955;28;45994;-60
2021/08/02 06:18:32;;;;;;;;;5.00;4.50;;;;;18.82;60.35;100723.31;5015149;28;65153;-61
2021/08/02 06:20:58;;;;;;;;;5.75;5.00;;;;;18.89;60.35;100730.56;5019401;28;45336;-61
2021/08/02 06:23:23;;;;;;;;;8.00;5.00;;;;;18.91;60.23;100726.69;5019552;28;45590;-61
2021/08/02 06:25:49;;;;;;;;;5.00;5.00;;;;;18.95;60.32;100732.47;5019238;28;45410;-60
2021/08/02 06:28:14;;;;;;;;;5.00;5.00;;;;;18.96;60.53;100734.16;5019428;28;45451;-60
2021/08/02 06:30:39;;;;;;;;;6.00;5.00;;;;;18.99;60.19;100728.47;5018684;28;59123;-60
2021/08/02 06:33:05;;;;;;;;;5.00;3.75;;;;;19.04;60.19;100726.06;5018404;28;69950;-60
2021/08/02 06:35:30;;;;;;;;;4.50;4.50;;;;;19.08;60.26;100726.50;5019323;28;46160;-61
2021/08/02 06:37:56;;;;;;;;;7.00;5.00;;;;;19.13;60.22;100737.41;5018464;28;70021;-60
2021/08/02 06:40:21;;;;;;;;;5.00;4.50;;;;;19.19;60.11;100738.50;5018470;28;63479;-60
2021/08/02 06:42:47;;;;;;;;;7.00;5.00;;;;;19.24;59.82;100734.28;5018551;28;55360;-60
2021/08/02 06:45:13;;;;;;;;;6.00;4.00;;;;;19.30;59.53;100740.69;5018889;28;45377;-60
2021/08/02 06:47:38;;;;;;;;;5.00;5.00;;;;;19.35;59.35;100737.44;5019096;28;45254;-60
2021/08/02 06:50:04;;;;;;;;;4.00;4.00;;;;;19.38;59.36;100737.88;5018552;28;58805;-60
2021/08/02 06:52:30;;;;;;;;;6.00;6.00;;;;;19.42;58.72;100741.00;5017988;28;45460;-60
2021/08/02 06:54:55;;;;;;;;;9.50;6.50;;;;;19.47;58.84;100738.59;5018910;28;45921;-60
2021/08/02 06:57:21;;;;;;;;;7.75;7.75;;;;;19.52;59.08;100748.69;5018949;28;45178;-60
2021/08/02 06:59:46;;;;;;;;;86.25;73.75;;;;;19.58;58.49;100747.94;5018808;28;45201;-60
2021/08/02 07:02:12;;;;;;;;;7.75;6.50;;;;;19.62;59.23;100741.19;5017965;28;67601;-61
2021/08/02 07:04:37;;;;;;;;;5.00;5.00;;;;;19.68;58.91;100747.59;5017998;28;61736;-60
2021/08/02 07:07:03;;;;;;;;;7.00;6.25;;;;;19.75;58.69;100748.50;5018062;28;51280;-60
2021/08/02 07:09:28;;;;;;;;;7.25;6.00;;;;;19.82;58.42;100751.19;5018348;28;45371;-61
2021/08/02 07:11:53;;;;;;;;;5.00;4.00;;;;;19.89;58.07;100751.28;5018117;28;59241;-60
2021/08/02 07:14:19;;;;;;;;;8.50;6.75;;;;;19.94;57.83;100755.03;5017629;28;75762;-60
2021/08/02 07:16:44;;;;;;;;;7.75;7.75;;;;;19.99;57.83;100755.28;5017738;28;67991;-60
2021/08/02 07:19:09;;;;;;;;;7.00;5.00;;;;;20.07;57.86;100756.16;5018060;28;61556;-60
2021/08/02 07:21:35;;;;;;;;;8.50;7.00;;;;;20.12;57.41;100748.41;5017599;28;68170;-60
2021/08/02 07:24:00;;;;;;;;;5.25;4.75;;;;;20.16;56.77;100747.81;5017268;28;75355;-60
2021/08/02 07:26:26;;;;;;;;;8.75;6.00;;;;;20.22;56.95;100753.41;5018283;28;45807;-60
2021/08/02 07:28:54;;;;;;;;;6.00;5.00;;;;;20.26;57.43;100752.78;5018453;28;45388;-60
2021/08/02 07:31:19;;;;;;;;;11.00;9.75;;;;;20.29;56.90;100744.41;5015968;28;45631;-60
2021/08/02 07:33:44;;;;;;;;;7.00;7.00;;;;;20.34;56.14;100751.00;5018281;28;45986;-61
2021/08/02 07:36:10;;;;;;;;;5.25;4.00;;;;;20.36;55.99;100744.47;5017270;28;70592;-60
2021/08/02 07:38:39;;;;;;;;;5.75;5.00;;;;;20.39;55.94;100743.22;5017502;28;68335;-60
2021/08/02 07:41:05;;;;;;;;;6.25;4.75;;;;;20.40;56.20;100745.69;5018335;28;45567;-60
2021/08/02 07:43:30;;;;;;;;;5.00;5.00;;;;;20.44;55.87;100738.13;5018204;28;45879;-61
2021/08/02 07:45:56;;;;;;;;;4.25;4.25;;;;;20.49;56.32;100743.72;5017596;28;57571;-60
2021/08/02 07:48:21;;;;;;;;;5.00;5.00;;;;;20.54;55.64;100751.94;5017322;28;68083;-60
2021/08/02 07:50:46;;;;;;;;;9.00;5.50;;;;;20.61;55.91;100747.47;5018332;28;45284;-60
2021/08/02 07:53:12;;;;;;;;;5.75;3.75;;;;;20.68;55.71;100746.66;5017052;28;74159;-60
2021/08/02 07:55:37;;;;;;;;;7.50;6.00;;;;;20.73;55.35;100749.56;5017043;28;72135;-60
2021/08/02 07:58:07;;;;;;;;;3.75;3.75;;;;;20.79;55.09;100754.16;5018077;28;45496;-60
2021/08/02 08:00:33;;;;;;;;;4.50;3.00;;;;;20.86;54.98;100749.66;5017879;28;45419;-60
2021/08/02 08:02:58;;;;;;;;;7.00;4.00;;;;;20.92;54.70;100756.06;5017164;28;65828;-61
2021/08/02 08:05:23;;;;;;;;;7.25;5.25;;;;;20.96;54.20;100748.47;5017139;28;66099;-60
2021/08/02 08:07:50;;;;;;;;;4.25;4.25;;;;;21.00;54.22;100744.38;5017980;28;45547;-60
2021/08/02 08:10:20;;;;;;;;;6.00;4.00;;;;;21.04;53.87;100745.63;5017718;28;45486;-60
2021/08/02 08:12:45;;;;;;;;;7.25;5.00;;;;;21.09;54.18;100743.19;5017936;28;45398;-61
2021/08/02 08:15:11;;;;;;;;;6.25;6.25;;;;;21.12;54.30;100741.94;5016543;28;45270;-59
2021/08/02 08:17:36;;;;;;;;;6.00;4.75;;;;;21.14;55.15;100739.88;5017764;28;45249;-61
2021/08/02 08:20:03;;;;;;;;;6.25;6.25;;;;;21.15;54.42;100742.38;5017859;28;45549;-61
2021/08/02 08:22:29;;;;;;;;;7.00;5.25;;;;;21.15;54.76;100745.03;5016799;28;45896;-60
2021/08/02 08:24:54;;;;;;;;;6.75;6.50;;;;;21.17;54.31;100743.00;5017631;28;45372;-60
2021/08/02 08:27:19;;;;;;;;;6.25;6.25;;;;;21.19;54.12;100743.63;5017584;28;45295;-60
2021/08/02 08:29:45;;;;;;;;;7.25;6.00;;;;;21.22;54.04;100736.19;5017476;28;45336;-60
2021/08/02 08:32:10;;;;;;;;;8.75;7.75;;;;;21.22;53.70;100741.53;5016549;28;71179;-60
2021/08/02 08:34:36;;;;;;;;;6.25;4.25;;;;;21.20;53.83;100739.91;5017104;28;52568;-60
2021/08/02 08:37:01;;;;;;;;;7.25;6.50;;;;;21.20;54.54;100739.09;5017559;28;45312;-60
2021/08/02 08:39:26;;;;;;;;;7.50;7.00;;;;;21.24;54.73;100744.84;5017647;28;45300;-59
2021/08/02 08:41:52;;;;;;;;;7.25;5.00;;;;;21.27;54.23;100737.25;5016977;28;46685;-60
2021/08/02 08:44:18;;;;;;;;;9.25;6.75;;;;;21.32;53.77;100739.31;5017234;28;45415;-60
2021/08/02 08:46:44;;;;;;;;;5.75;5.00;;;;;21.38;53.68;100735.84;4999575;28;45377;-60
2021/08/02 08:49:09;;;;;;;;;6.25;5.25;;;;;21.46;53.96;100746.34;5017364;28;45297;-61
2021/08/02 08:51:36;;;;;;;;;6.00;3.00;;;;;21.52;53.13;100734.00;5016216;28;71833;-61
2021/08/02 08:54:02;;;;;;;;;5.50;5.00;;;;;21.57;53.38;100738.75;5015729;28;45914;-60
2021/08/02 08:56:27;;;;;;;;;7.75;5.00;;;;;21.63;52.89;100740.63;5016287;28;66828;-59
2021/08/02 08:58:52;;;;;;;;;5.50;4.00;;;;;21.69;52.75;100745.16;5015892;28;70559;-60
2021/08/02 09:01:25;;;;;;;;;6.00;5.25;;;;;21.76;53.04;100734.47;5016027;28;74685;-60
2021/08/02 09:03:51;;;;;;;;;5.50;5.00;;;;;21.83;51.99;100735.28;5017093;28;45179;-60
2021/08/02 09:06:16;;;;;;;;;7.25;6.25;;;;;21.88;52.51;100738.19;5016848;28;45363;-60
2021/08/02 09:08:43;;;;;;;;;8.50;6.50;;;;;21.94;52.47;100739.19;5016158;28;66259;-60
2021/08/02 09:11:08;;;;;;;;;6.00;6.00;;;;;21.99;51.70;100742.06;5016801;28;45490;-60
2021/08/02 09:13:35;;;;;;;;;4.75;4.75;;;;;22.06;52.21;100736.69;5016769;28;45459;-60
2021/08/02 09:16:11;;;;;;;;;5.00;5.00;;;;;22.14;51.27;100749.06;5016982;28;45350;-60
2021/08/02 09:18:36;;;;;;;;;4.50;4.00;;;;;22.21;51.28;100736.50;5016929;28;45354;-60
2021/08/02 09:21:02;;;;;;;;;5.00;4.00;;;;;22.24;50.78;100739.56;5015502;28;75631;-61
2021/08/02 09:23:28;;;;;;;;;6.25;5.00;;;;;22.29;50.61;100738.13;5016628;28;45880;-60
2021/08/02 09:25:54;;;;;;;;;4.75;4.00;;;;;22.34;50.82;100741.00;5016829;28;45224;-60
2021/08/02 09:28:22;;;;;;;;;4.25;4.25;;;;;22.39;50.61;100742.00;5016705;28;45491;-60
2021/08/02 09:30:54;;;;;;;;;4.75;4.00;;;;;22.48;50.63;100742.66;5016432;28;46134;-60
2021/08/02 09:33:19;;;;;;;;;6.00;4.25;;;;;22.57;50.38;100747.75;5015396;28;45837;-60
2021/08/02 09:35:49;;;;;;;;;8.00;8.00;;;;;22.64;50.38;100744.03;5016029;28;60010;-59
2021/08/02 09:38:14;;;;;;;;;9.00;6.00;;;;;22.72;50.22;100742.97;5016311;28;45260;-60
2021/08/02 09:40:50;;;;;;;;;8.75;5.00;;;;;22.79;49.13;100740.25;5016192;28;46062;-61
2021/08/02 09:43:21;;;;;;;;;9.00;5.75;;;;;22.86;49.29;100741.03;5016005;28;45349;-60
2021/08/02 09:45:47;;;;;;;;;5.00;4.50;;;;;22.94;49.40;100742.69;5015964;28;45182;-60
2021/08/02 09:48:15;;;;;;;;;5.00;4.25;;;;;23.00;49.18;100735.63;5016342;28;45568;-61
2021/08/02 09:50:44;;;;;;;;;4.25;4.25;;;;;23.05;48.40;100741.97;5016250;28;46402;-60
2021/08/02 09:53:17;;;;;;;;;4.00;4.00;;;;;23.10;48.69;100747.53;5015694;28;45912;-60
2021/08/02 09:55:43;;;;;;;;;3.25;3.25;;;;;23.18;48.10;100733.06;5016298;28;45447;-60
2021/08/02 09:58:14;;;;;;;;;7.00;4.00;;;;;23.27;48.50;100736.34;5015096;28;45569;-61
2021/08/02 10:00:40;;;;;;;;;5.50;4.00;;;;;23.37;48.85;100731.31;5014122;28;45411;-60
2021/08/02 10:03:06;;;;;;;;;4.75;3.00;;;;;23.47;47.33;100735.38;5016269;28;45303;-60
2021/08/02 10:05:31;;;;;;;;;6.00;3.25;;;;;23.53;47.89;100735.34;5016235;28;45806;-61
2021/08/02 10:07:56;;;;;;;;;4.25;3.00;;;;;23.61;47.09;100725.38;5014211;28;58135;-61
2021/08/02 10:10:22;;;;;;;;;8.00;7.25;;;;;23.71;47.17;100725.72;4980810;28;77780;-60
2021/08/02 10:12:48;;;;;;;;;5.00;4.00;;;;;23.83;46.63;100729.34;5014806;28;73077;-60
2021/08/02 10:15:16;;;;;;;;;3.00;3.00;;;;;24.01;46.47;100730.41;5014953;28;45388;-61
2021/08/02 10:17:46;;;;;;;;;3.25;3.25;;;;;24.19;46.33;100726.94;5016073;28;45252;-61
2021/08/02 10:20:18;;;;;;;;;3.75;3.75;;;;;24.38;44.83;100726.97;5015920;28;47971;-61
2021/08/02 10:22:44;;;;;;;;;4.00;4.00;;;;;24.56;44.60;100726.13;5015936;28;45433;-60
2021/08/02 10:25:09;;;;;;;;;3.00;3.00;;;;;24.77;44.54;100729.44;5014932;28;45460;-61
2021/08/02 10:27:35;;;;;;;;;3.50;3.50;;;;;24.90;44.13;100726.59;5015917;28;45352;-61
2021/08/02 10:30:00;;;;;;;;;2.00;2.00;;;;;25.02;43.32;100724.75;5014714;28;72200;-60
2021/08/02 10:32:27;;;;;;;;;3.75;3.75;;;;;25.12;42.92;100726.06;5013554;28;73043;-60
2021/08/02 10:34:54;;;;;;;;;3.25;2.00;;;;;25.14;42.00;100722.13;5015969;28;45424;-60
2021/08/02 10:37:33;;;;;;;;;3.00;3.00;;;;;25.13;42.16;100725.84;5015843;28;45252;-60
2021/08/02 10:40:01;;;;;;;;;3.25;3.00;;;;;25.15;42.16;100729.13;5015630;28;45444;-60
2021/08/02 10:42:27;;;;;;;;;3.75;3.00;;;;;25.12;42.10;100726.06;5014622;28;45284;-61
2021/08/02 10:44:56;;;;;;;;;3.00;3.00;;;;;25.13;42.29;100728.53;5015764;28;45392;-60
2021/08/02 10:47:21;;;;;;;;;4.00;3.25;;;;;25.16;41.88;100722.72;5014315;28;45175;-61
2021/08/02 10:49:50;;;;;;;;;3.75;3.75;;;;;25.16;41.97;100725.41;5013638;28;68895;-61
2021/08/02 10:52:28;;;;;;;;;4.00;3.75;;;;;25.16;42.12;100725.41;5015535;28;45241;-60
2021/08/02 10:54:54;;;;;;;;;3.75;3.75;;;;;25.15;41.71;100733.69;5015855;28;45297;-61
2021/08/02 10:57:19;;;;;;;;;4.75;2.75;;;;;25.15;41.98;100725.59;5015666;28;45536;-61
2021/08/02 10:59:44;;;;;;;;;4.50;3.50;;;;;25.15;41.93;100728.28;5013077;28;75463;-61
2021/08/02 11:02:10;;;;;;;;;1.75;1.75;;;;;25.13;41.38;100730.41;5014541;28;73341;-61
2021/08/02 11:04:37;;;;;;;;;3.75;2.75;;;;;25.07;42.07;100718.69;5014907;28;45269;-61
2021/08/02 11:07:02;;;;;;;;;2.00;2.00;;;;;25.04;41.83;100733.41;5019124;28;45459;-61
2021/08/02 11:09:28;;;;;;;;;3.50;3.25;;;;;25.01;41.65;100725.78;5017971;28;46178;-61
2021/08/02 11:12:11;;;;;;;;;3.75;3.75;;;;;24.96;41.75;100727.53;5018941;28;45859;-60
2021/08/02 11:14:53;;;;;;;;;4.00;2.50;;;;;24.91;41.54;100722.81;5019018;28;45245;-60
2021/08/02 11:17:20;;;;;;;;;4.25;2.50;;;;;24.90;42.04;100729.28;5018788;28;45491;-60
2021/08/02 11:19:45;;;;;;;;;3.00;3.00;;;;;24.89;42.62;100728.44;5018603;28;45352;-61
2021/08/02 11:22:11;;;;;;;;;5.00;4.00;;;;;24.94;42.69;100724.25;5018218;28;45267;-61
2021/08/02 11:24:38;;;;;;;;;3.00;3.00;;;;;24.99;42.57;100729.75;5018832;28;45225;-60